SAZR/RSA METAR and TAF weather

Enter ICAO airport designator
Station Type Date Time Source
SAZR METAR 2020/04/01 06:35 UTC NOAA

SAZR 010635Z 18008KT 9999 BKN004 OVC100 17/17 Q1015


Station Type Date Time Source
SAZR Decoded METAR 2020/04/01 06:35 UTC NOAA

Santa Rosa Aerodrome, Argentina (SAZR) 36-34S 064-16W 191M
Apr 01, 2020 - 02:35 AM EDT / 2020.04.01 0635 UTC
Wind: from the S (180 degrees) at 9 MPH (8 KT):0
Visibility: greater than 7 mile(s):0
Sky conditions: overcast
Temperature: 62 F (17 C)
Dew Point: 62 F (17 C)
Relative Humidity: 100%
Pressure (altimeter): 29.97 in. Hg (1015 hPa)
ob: SAZR 010635Z 18008KT 9999 BKN004 OVC100 17/17 Q1015
cycle: 6

Station Type Date Time Source
SAZR TAF 2020/04/03 00:45 UTC NOAA

TAF SAZR 032300Z 0400/0424 36012KT CAVOK TX25/0418Z TN12/0410Z
BECMG 0407/0409 32008KT
BECMG 0411/0413 20010G20KT
BECMG 0415/0417 14015KT

Example: see airport list